Alpena, MI

3:33 PM EDT on April 19, 2015 (GMT -0400)
APRSWXNET | | Change Station
CLOSE
Current Station
Personal Weather Station
Location: Alpena, MI
Elevation: 593 ft
Nearby Weather Stations

Elev 593 ft 45.05 °N, 83.45 °W | Updated 25 minutes ago

Partly Cloudy
Partly Cloudy
45 °F
Feels Like 41 °F
N
8
Wind Variable Wind from East
Gusts 15.0 mph

Today
High -- | Low -- °F
--% Chance of Precip.
Yesterday
High -- | Low -- °F
Precip. -- in
6:42 AM 8:24 PM
New Moon, 2% visible
Pressure 29.99 in
Visibility 10.0 miles
Clouds Clear
Windchill 41 °F
Dew Point 36 °F
Humidity 70%
Rainfall in
Snow Depth Not available.
UV 8 out of 12
Pollen 9.80 out of 12
Air Quality Not available.
Flu Activity Regional
METAR KAPN 191854Z AUTO 11014G20KT 10SM CLR 09/M01 A2998 RMK AO2 SLP156 T00891006

More Conditions Fewer Conditions

Pressure 29.99 in
Visibility 10.0 miles
Clouds Clear
Windchill 41 °F
Dew Point 36 °F
Humidity 70%
Rainfall in
Snow Depth Not available.
UV 8 out of 12
Pollen 9.80 out of 12
Air Quality Not available.
Flu Activity Regional
METAR KAPN 191854Z AUTO 11014G20KT 10SM CLR 09/M01 A2998 RMK AO2 SLP156 T00891006

More Conditions Fewer Conditions

Nowcast | as of 3:00 PM EDT on April 19, 2015

At 4 PM...partly cloudy. Temperature 49. East winds 19 mph with gusts to 30 mph. At 6 PM...mostly cloudy. Slight chance of rain. Temperature 50. East winds 21 mph. At 8 PM...rain likely. Temperature 48. East winds 16 mph. At 10 PM...rain likely. Temperature 45. East winds 15 mph.

×

10-Day Weather Forecast

Almanac

Astronomy

Apr. 19, 2015 Rise Set
Actual Time
Civil Twilight
Nautical Twilight
Astronomical Twilight
Moon
Length of Visible Light
Length of Day
Tomorrow will be .
, % of the Moon is Illuminated

Today's Extremes

State Highs State Lows

Community

WunderPhotos

Upload Photos

1,814,944 photos uploaded!

WunderBlogs® & News

Nearby

Air Quality

  Air Quality AQ Index Pollutant
Not available.

Snow Depth

Station Depth Elevation

Earthquake Activity

City Distance Mag. Time & Date
Minimum magnitude displayed is 2.5.

Coastal Water Temperatures

Place Temperature

Stations

Nearby Weather Stations

Station Location Temp. Windchill Dew Point Humidity Wind Precip. Elev Updated Type